Time;durP1;ratioP1;P1;durP2;ratioP2;P2;SDS_P1;SDS_P2;PMS_P1;PMS_P2;Temp;Humidity;BMP_temperature;BMP_pressure;BME280_temperature;BME280_humidity;BME280_pressure;Samples;Min_cycle;Max_cycle;Signal;HPM_P1;HPM_P2
2022/06/15 03:02:41;;;;;;;0.80;0.80;;;19.00;64.60;;;;;;5171326;23;20493;-75
2022/06/15 03:05:09;;;;;;;0.80;0.80;;;18.90;64.90;;;;;;4996694;28;20445;-76
2022/06/15 03:07:36;;;;;;;0.90;0.73;;;18.80;64.70;;;;;;4996647;28;20499;-75
2022/06/15 03:10:02;;;;;;;0.70;0.70;;;18.80;64.90;;;;;;4996575;28;20445;-76
2022/06/15 03:12:29;;;;;;;0.70;0.70;;;18.80;65.10;;;;;;4996435;28;20468;-75
2022/06/15 03:14:56;;;;;;;0.73;0.67;;;18.70;65.30;;;;;;4998009;28;20566;-76
2022/06/15 03:17:23;;;;;;;0.80;0.70;;;18.70;65.20;;;;;;4996466;28;20445;-75
2022/06/15 03:19:51;;;;;;;0.80;0.77;;;18.70;65.60;;;;;;4996371;28;20503;-76
2022/06/15 03:22:17;;;;;;;0.70;0.60;;;18.70;65.20;;;;;;4996202;28;20556;-76
2022/06/15 03:24:44;;;;;;;0.77;0.70;;;18.80;64.90;;;;;;4996200;28;20484;-75
2022/06/15 03:27:10;;;;;;;0.70;0.70;;;18.80;65.00;;;;;;4996295;28;20445;-76
2022/06/15 03:29:37;;;;;;;0.90;0.80;;;18.80;65.00;;;;;;4996211;28;20500;-76
2022/06/15 03:32:04;;;;;;;0.80;0.70;;;18.80;65.10;;;;;;4996085;28;20461;-75
2022/06/15 03:34:31;;;;;;;0.83;0.80;;;18.80;65.10;;;;;;4996163;28;20445;-75
2022/06/15 03:36:59;;;;;;;1.10;0.80;;;18.80;65.30;;;;;;4996073;28;20589;-75
2022/06/15 03:39:26;;;;;;;0.70;0.70;;;18.80;65.10;;;;;;4995738;28;20853;-75
2022/06/15 03:41:52;;;;;;;0.70;0.70;;;18.70;65.20;;;;;;4996067;28;20527;-75
2022/06/15 03:44:19;;;;;;;0.83;0.83;;;18.80;65.20;;;;;;4995835;28;20485;-74
2022/06/15 03:46:46;;;;;;;0.70;0.70;;;18.80;65.10;;;;;;4995758;28;20449;-75
2022/06/15 03:49:14;;;;;;;0.83;0.70;;;18.80;65.00;;;;;;4995742;28;20504;-75
2022/06/15 03:51:41;;;;;;;0.70;0.63;;;18.70;65.50;;;;;;4995712;28;20844;-75
2022/06/15 03:54:09;;;;;;;0.70;0.60;;;18.70;65.60;;;;;;4995728;28;20453;-75
2022/06/15 03:56:43;;;;;;;0.70;0.70;;;18.70;65.80;;;;;;4995741;28;20552;-75
2022/06/15 03:59:11;;;;;;;0.93;0.70;;;18.70;65.90;;;;;;4995657;28;20447;-75
2022/06/15 04:01:38;;;;;;;0.80;0.70;;;18.80;66.40;;;;;;4995112;28;20480;-75
2022/06/15 04:04:06;;;;;;;0.70;0.60;;;18.80;66.40;;;;;;4995510;28;20485;-75
2022/06/15 04:06:33;;;;;;;0.70;0.70;;;18.80;66.50;;;;;;4995536;28;20445;-75
2022/06/15 04:08:59;;;;;;;0.70;0.70;;;18.90;66.00;;;;;;4994982;28;20827;-75
2022/06/15 04:14:11;;;;;;;0.70;0.60;;;18.90;65.20;;;;;;4995427;28;20241;-75
2022/06/15 04:16:38;;;;;;;0.83;0.83;;;18.90;64.70;;;;;;4995302;28;20544;-75
2022/06/15 04:19:07;;;;;;;1.00;0.73;;;18.90;64.30;;;;;;4995292;28;20503;-75
2022/06/15 04:21:34;;;;;;;0.90;0.77;;;18.90;64.50;;;;;;4995124;28;20900;-75
2022/06/15 04:24:01;;;;;;;0.90;0.90;;;18.90;64.60;;;;;;4995036;28;20487;-75
2022/06/15 04:26:29;;;;;;;0.80;0.70;;;19.00;64.40;;;;;;4995150;28;20499;-75
2022/06/15 04:28:56;;;;;;;0.80;0.70;;;19.00;64.40;;;;;;4995089;28;20503;-76
2022/06/15 04:31:23;;;;;;;0.70;0.60;;;19.10;63.80;;;;;;4994942;28;20473;-76
2022/06/15 04:33:49;;;;;;;1.00;0.90;;;19.20;64.10;;;;;;4994971;28;20503;-76
2022/06/15 04:36:17;;;;;;;0.90;0.80;;;19.20;63.70;;;;;;4994956;28;20449;-76
2022/06/15 04:38:43;;;;;;;0.93;0.83;;;19.10;63.90;;;;;;4994880;28;20453;-76
2022/06/15 04:41:10;;;;;;;0.80;0.80;;;19.20;64.20;;;;;;4994827;28;20469;-76
2022/06/15 04:43:38;;;;;;;1.10;0.70;;;19.30;64.40;;;;;;4994741;28;20551;-76
2022/06/15 04:46:05;;;;;;;0.80;0.80;;;19.40;64.20;;;;;;4994801;28;20453;-76
2022/06/15 04:48:32;;;;;;;0.80;0.70;;;19.50;63.90;;;;;;4994708;28;20515;-76
2022/06/15 04:51:08;;;;;;;0.70;0.70;;;19.70;63.80;;;;;;4995496;28;20469;-76
2022/06/15 04:53:35;;;;;;;0.80;0.60;;;19.80;63.70;;;;;;4994464;28;20952;-75
2022/06/15 04:56:02;;;;;;;0.80;0.80;;;19.90;64.50;;;;;;4994643;28;20448;-74
2022/06/15 04:58:28;;;;;;;0.80;0.80;;;19.90;65.40;;;;;;4994590;28;20449;-76
2022/06/15 05:00:56;;;;;;;0.80;0.80;;;19.80;65.80;;;;;;4994385;28;20472;-76
2022/06/15 05:03:23;;;;;;;0.80;0.80;;;19.80;65.10;;;;;;4994598;28;20492;-73
2022/06/15 05:05:50;;;;;;;0.73;0.73;;;19.70;66.00;;;;;;4994611;28;20507;-76
2022/06/15 05:08:16;;;;;;;0.70;0.70;;;19.80;65.30;;;;;;4994525;28;20531;-76
2022/06/15 05:10:44;;;;;;;0.70;0.70;;;20.00;65.40;;;;;;4994322;28;20489;-74
2022/06/15 05:13:10;;;;;;;0.87;0.80;;;20.10;65.20;;;;;;4994509;28;20448;-76
2022/06/15 05:15:38;;;;;;;0.87;0.80;;;20.20;64.30;;;;;;4994470;28;20449;-76
2022/06/15 05:18:08;;;;;;;0.80;0.80;;;20.30;64.70;;;;;;4994387;28;20460;-76
2022/06/15 05:20:37;;;;;;;0.70;0.63;;;20.50;64.20;;;;;;4993577;28;20472;-76
2022/06/15 05:23:04;;;;;;;0.70;0.60;;;20.70;63.80;;;;;;4994244;28;20452;-76
2022/06/15 05:25:30;;;;;;;0.70;0.70;;;20.60;63.00;;;;;;4994273;28;20453;-76
2022/06/15 05:27:57;;;;;;;0.70;0.70;;;20.80;63.80;;;;;;4994277;28;20448;-76
2022/06/15 05:30:24;;;;;;;0.70;0.60;;;20.70;63.10;;;;;;4994172;28;20503;-76
2022/06/15 05:32:50;;;;;;;0.70;0.60;;;20.90;63.90;;;;;;4994177;28;20511;-76
2022/06/15 05:35:19;;;;;;;0.90;0.73;;;20.80;62.80;;;;;;4994109;28;20445;-76
2022/06/15 05:37:45;;;;;;;0.70;0.70;;;20.70;64.40;;;;;;4994047;28;20445;-76
2022/06/15 05:40:13;;;;;;;0.80;0.80;;;20.90;65.00;;;;;;4994051;28;20445;-76
2022/06/15 05:42:39;;;;;;;0.80;0.77;;;21.20;64.60;;;;;;4994022;28;20469;-76
2022/06/15 05:45:07;;;;;;;0.80;0.70;;;21.50;64.10;;;;;;4993917;28;20476;-76
2022/06/15 05:47:34;;;;;;;1.67;0.80;;;21.70;63.70;;;;;;4993910;28;20956;-76
2022/06/15 05:50:01;;;;;;;0.90;0.77;;;22.00;63.60;;;;;;4993549;28;20806;-76
2022/06/15 05:52:29;;;;;;;0.80;0.70;;;22.20;62.60;;;;;;4993901;28;20469;-76
2022/06/15 05:54:58;;;;;;;0.70;0.70;;;22.10;59.40;;;;;;4993916;28;20863;-76
2022/06/15 05:57:26;;;;;;;0.73;0.73;;;21.70;60.40;;;;;;4993478;28;20800;-76
2022/06/15 05:59:55;;;;;;;1.00;0.70;;;21.80;61.10;;;;;;4993774;28;20460;-76
2022/06/15 06:02:24;;;;;;;0.80;0.70;;;21.90;61.00;;;;;;4993322;28;20999;-76
2022/06/15 06:04:51;;;;;;;0.80;0.70;;;21.80;60.40;;;;;;4993699;28;20488;-76
2022/06/15 06:07:18;;;;;;;0.80;0.70;;;21.80;61.90;;;;;;4993778;28;20456;-76
2022/06/15 06:09:46;;;;;;;0.77;0.70;;;21.50;63.40;;;;;;4993789;28;20495;-76
2022/06/15 06:12:13;;;;;;;0.80;0.70;;;21.40;63.50;;;;;;4993322;28;20469;-76
2022/06/15 06:14:40;;;;;;;1.07;0.80;;;21.40;63.50;;;;;;4993680;28;20495;-76
2022/06/15 06:17:07;;;;;;;0.70;0.70;;;21.50;63.70;;;;;;4993650;28;20456;-76
2022/06/15 06:19:34;;;;;;;0.70;0.70;;;21.30;64.30;;;;;;4993591;28;20536;-76
2022/06/15 06:22:01;;;;;;;0.87;0.63;;;21.50;63.60;;;;;;4993207;28;20980;-76
2022/06/15 06:24:28;;;;;;;0.80;0.80;;;21.60;64.00;;;;;;4993528;28;20512;-76
2022/06/15 06:27:00;;;;;;;0.80;0.80;;;21.60;64.00;;;;;;4993225;28;20940;-76
2022/06/15 06:29:28;;;;;;;0.73;0.70;;;21.90;62.40;;;;;;4993298;28;20839;-76
2022/06/15 06:31:54;;;;;;;0.70;0.70;;;22.00;62.20;;;;;;4994503;28;20475;-76
2022/06/15 06:34:21;;;;;;;0.70;0.63;;;22.30;62.80;;;;;;4997145;28;20498;-76
2022/06/15 06:36:48;;;;;;;0.70;0.63;;;22.50;61.50;;;;;;4997188;28;20535;-76
2022/06/15 06:39:17;;;;;;;0.80;0.70;;;22.60;61.00;;;;;;4997033;28;20455;-76
2022/06/15 06:41:43;;;;;;;0.70;0.67;;;22.80;60.60;;;;;;4997007;28;20477;-76
2022/06/15 06:44:12;;;;;;;0.70;0.60;;;22.50;61.20;;;;;;4996937;28;20481;-76
2022/06/15 06:46:43;;;;;;;0.70;0.60;;;22.60;61.00;;;;;;4997031;28;20499;-76
2022/06/15 06:49:10;;;;;;;0.80;0.70;;;22.70;60.10;;;;;;4997004;28;20483;-76
2022/06/15 06:51:38;;;;;;;0.80;0.70;;;22.40;58.40;;;;;;4996523;28;20979;-76
2022/06/15 06:54:06;;;;;;;0.90;0.70;;;22.50;58.20;;;;;;4996771;28;20453;-76
2022/06/15 06:56:34;;;;;;;1.00;0.70;;;22.70;56.60;;;;;;4996795;28;20507;-76
2022/06/15 06:59:01;;;;;;;1.03;1.03;;;23.10;56.90;;;;;;4996754;28;20445;-76
2022/06/15 07:01:30;;;;;;;0.80;0.70;;;23.20;57.80;;;;;;4996455;28;20480;-76
2022/06/15 07:03:57;;;;;;;0.70;0.70;;;22.90;56.20;;;;;;4996580;28;20524;-76
2022/06/15 07:06:24;;;;;;;0.70;0.60;;;22.80;56.50;;;;;;4996653;28;20449;-76
2022/06/15 07:08:51;;;;;;;0.70;0.70;;;23.00;57.00;;;;;;4996609;28;20457;-76
2022/06/15 07:11:18;;;;;;;0.70;0.60;;;23.40;57.00;;;;;;4996263;28;20999;-76
2022/06/15 07:13:45;;;;;;;0.80;0.73;;;23.70;57.00;;;;;;4996508;28;20449;-76
2022/06/15 07:16:15;;;;;;;0.80;0.77;;;23.80;56.20;;;;;;4996438;28;20500;-76
2022/06/15 07:18:45;;;;;;;0.90;0.70;;;23.70;57.30;;;;;;4996432;28;20874;-76
2022/06/15 07:21:15;;;;;;;0.93;0.67;;;23.90;57.20;;;;;;4996020;28;20972;-76
2022/06/15 07:23:45;;;;;;;0.77;0.77;;;23.90;57.00;;;;;;4996278;28;20449;-76
2022/06/15 07:26:15;;;;;;;0.80;0.77;;;24.10;57.10;;;;;;4996320;28;20449;-76
2022/06/15 07:28:43;;;;;;;0.70;0.70;;;24.30;56.70;;;;;;4996206;28;20448;-76
2022/06/15 07:31:10;;;;;;;0.70;0.70;;;24.30;57.20;;;;;;4996199;28;20469;-76
2022/06/15 07:33:38;;;;;;;0.70;0.60;;;24.30;57.60;;;;;;4996216;28;20496;-77
2022/06/15 07:36:07;;;;;;;0.70;0.70;;;24.50;57.90;;;;;;4996240;28;20445;-77
2022/06/15 07:38:33;;;;;;;0.70;0.67;;;24.60;57.10;;;;;;4995658;28;20871;-76
2022/06/15 07:41:01;;;;;;;0.70;0.60;;;24.70;58.20;;;;;;4995650;28;20899;-76
2022/06/15 07:43:28;;;;;;;0.70;0.60;;;24.90;57.20;;;;;;4995490;28;20468;-76
2022/06/15 07:45:55;;;;;;;0.70;0.70;;;24.90;57.20;;;;;;4995903;28;20480;-76
2022/06/15 07:51:09;;;;;;;0.77;0.73;;;24.80;56.90;;;;;;4995832;28;20447;-76
2022/06/15 07:53:36;;;;;;;0.70;0.60;;;25.10;53.90;;;;;;4995749;28;20788;-76
2022/06/15 07:56:04;;;;;;;0.70;0.70;;;25.10;54.30;;;;;;4995767;28;20503;-76
2022/06/15 07:58:31;;;;;;;0.70;0.70;;;25.10;54.50;;;;;;4995727;28;20449;-76
2022/06/15 08:00:58;;;;;;;0.70;0.60;;;25.40;56.30;;;;;;4995120;28;20845;-76
2022/06/15 08:03:24;;;;;;;0.90;0.70;;;24.90;56.20;;;;;;4995696;28;20437;-76
2022/06/15 08:05:51;;;;;;;0.70;0.70;;;25.00;57.70;;;;;;4995512;28;20558;-76
2022/06/15 08:08:22;;;;;;;0.70;0.60;;;25.10;56.30;;;;;;4995549;28;20479;-76
2022/06/15 08:10:50;;;;;;;0.70;0.70;;;25.20;54.80;;;;;;4995511;28;20853;-76
2022/06/15 08:13:17;;;;;;;0.80;0.67;;;25.30;55.80;;;;;;4995353;28;20460;-76
2022/06/15 08:15:45;;;;;;;1.23;0.60;;;25.40;54.40;;;;;;4995380;28;20500;-76
2022/06/15 08:18:16;;;;;;;0.90;0.70;;;25.50;55.70;;;;;;4995347;28;20503;-77
2022/06/15 08:20:47;;;;;;;1.00;0.80;;;25.40;54.70;;;;;;4994870;28;20975;-76
2022/06/15 08:23:17;;;;;;;0.70;0.70;;;25.40;54.60;;;;;;4995230;28;20452;-76
2022/06/15 08:25:50;;;;;;;0.70;0.70;;;25.50;55.40;;;;;;4995073;28;20484;-76
2022/06/15 08:28:19;;;;;;;1.10;0.70;;;25.70;55.50;;;;;;4995178;28;20493;-76
2022/06/15 08:30:47;;;;;;;0.70;0.60;;;25.90;55.00;;;;;;4994981;28;20469;-76
2022/06/15 08:33:14;;;;;;;0.80;0.70;;;25.80;54.20;;;;;;4995051;28;20476;-76
2022/06/15 08:35:41;;;;;;;0.70;0.60;;;26.00;54.60;;;;;;4995017;28;20504;-76
2022/06/15 08:38:10;;;;;;;0.70;0.60;;;25.90;54.80;;;;;;4994941;28;20449;-76
2022/06/15 08:40:45;;;;;;;0.70;0.60;;;25.70;54.50;;;;;;4994854;28;20445;-76
2022/06/15 08:43:24;;;;;;;0.70;0.60;;;25.80;55.30;;;;;;4994915;28;20484;-76
2022/06/15 08:45:56;;;;;;;0.80;0.70;;;26.00;53.50;;;;;;4994817;28;20477;-76
2022/06/15 08:48:36;;;;;;;0.70;0.60;;;25.90;54.20;;;;;;4994815;28;20496;-76
2022/06/15 08:51:10;;;;;;;0.80;0.80;;;26.20;55.30;;;;;;4994716;28;20527;-76
2022/06/15 08:53:46;;;;;;;0.90;0.67;;;26.40;54.60;;;;;;4994670;28;20452;-76
2022/06/15 08:56:18;;;;;;;0.80;0.70;;;26.60;53.10;;;;;;4994290;28;20836;-77
2022/06/15 08:58:50;;;;;;;0.70;0.60;;;26.90;54.40;;;;;;4994641;28;20468;-76
2022/06/15 09:01:27;;;;;;;0.80;0.70;;;27.10;53.10;;;;;;4994267;28;20587;-76
2022/06/15 09:04:04;;;;;;;0.70;0.67;;;27.20;53.90;;;;;;4994557;28;20499;-76
2022/06/15 09:06:48;;;;;;;0.70;0.60;;;27.20;53.80;;;;;;4994614;28;20520;-77
2022/06/15 09:09:33;;;;;;;0.70;0.60;;;27.30;53.00;;;;;;4994369;28;20426;-77
2022/06/15 09:15:13;;;;;;;0.73;0.70;;;27.70;53.40;;;;;;4996019;28;20408;-76
2022/06/15 09:17:41;;;;;;;0.70;0.70;;;27.90;53.40;;;;;;4994465;28;20437;-75
2022/06/15 09:20:12;;;;;;;0.73;0.73;;;27.80;51.60;;;;;;4994386;28;20512;-76
2022/06/15 09:22:50;;;;;;;0.70;0.70;;;27.80;51.90;;;;;;4994438;28;20469;-77
2022/06/15 09:25:23;;;;;;;0.80;0.80;;;28.10;51.10;;;;;;4994386;28;20516;-76
2022/06/15 09:27:54;;;;;;;0.80;0.70;;;28.10;51.70;;;;;;4994132;28;20491;-77
2022/06/15 09:30:27;;;;;;;0.80;0.70;;;27.90;51.80;;;;;;4994268;28;20487;-77
2022/06/15 09:32:58;;;;;;;0.70;0.70;;;27.90;49.90;;;;;;4993793;28;20861;-77
2022/06/15 09:35:29;;;;;;;0.70;0.60;;;27.80;51.10;;;;;;4994086;28;20429;-77
2022/06/15 09:37:59;;;;;;;0.80;0.70;;;27.80;51.40;;;;;;4994054;28;20433;-76
2022/06/15 09:40:39;;;;;;;0.70;0.60;;;27.70;52.30;;;;;;4994433;28;20828;-77
2022/06/15 09:43:13;;;;;;;0.70;0.60;;;27.60;54.50;;;;;;4994118;28;20436;-77
2022/06/15 09:45:45;;;;;;;0.70;0.70;;;27.60;51.90;;;;;;4993689;28;20515;-77
2022/06/15 09:48:24;;;;;;;0.70;0.70;;;27.90;53.70;;;;;;4993833;28;20848;-76
2022/06/15 09:50:57;;;;;;;0.70;0.63;;;28.00;52.80;;;;;;4994729;28;20465;-76
2022/06/15 09:53:34;;;;;;;0.90;0.70;;;28.40;51.80;;;;;;4993951;28;20438;-77
2022/06/15 09:56:06;;;;;;;0.70;0.60;;;28.20;51.60;;;;;;4993980;28;20433;-77
2022/06/15 09:58:38;;;;;;;0.80;0.70;;;28.10;50.80;;;;;;4993934;28;20913;-77
2022/06/15 10:01:07;;;;;;;0.80;0.70;;;27.80;50.50;;;;;;4993770;28;20480;-76
2022/06/15 10:03:37;;;;;;;0.80;0.70;;;28.10;52.90;;;;;;4993763;28;20862;-77
2022/06/15 10:06:15;;;;;;;0.70;0.60;;;27.70;52.80;;;;;;4993888;28;20535;-76
2022/06/15 10:08:42;;;;;;;0.70;0.70;;;27.90;50.40;;;;;;4998000;28;20425;-77
2022/06/15 10:11:15;;;;;;;1.97;0.70;;;28.00;50.30;;;;;;4997329;28;20981;-77
2022/06/15 10:13:43;;;;;;;0.70;0.63;;;27.90;50.10;;;;;;4997707;28;20496;-76
2022/06/15 10:16:24;;;;;;;1.27;0.70;;;28.00;51.00;;;;;;4997566;28;20445;-77
2022/06/15 10:18:53;;;;;;;1.33;0.70;;;28.20;51.90;;;;;;4997602;28;20433;-76
2022/06/15 10:21:23;;;;;;;0.80;0.77;;;28.40;50.90;;;;;;4997605;28;20465;-77
2022/06/15 10:23:55;;;;;;;0.80;0.80;;;28.60;48.20;;;;;;4997506;28;20480;-76
2022/06/15 10:26:38;;;;;;;0.70;0.67;;;28.60;47.70;;;;;;4997141;28;20465;-73
2022/06/15 10:29:26;;;;;;;0.70;0.60;;;28.40;47.10;;;;;;4997511;28;20433;-77
2022/06/15 10:32:15;;;;;;;0.70;0.60;;;28.50;49.50;;;;;;4997005;28;20831;-77
2022/06/15 10:34:54;;;;;;;0.70;0.70;;;28.60;46.90;;;;;;4997345;28;20436;-77
2022/06/15 10:37:25;;;;;;;0.80;0.60;;;28.60;47.20;;;;;;4997250;28;20487;-77
2022/06/15 10:39:55;;;;;;;0.90;0.80;;;28.50;48.50;;;;;;4997258;28;20517;-77
2022/06/15 10:42:25;;;;;;;0.80;0.60;;;28.80;47.90;;;;;;4997113;28;20464;-76
2022/06/15 10:44:55;;;;;;;0.70;0.70;;;29.10;47.00;;;;;;4997080;28;20524;-76
2022/06/15 10:47:26;;;;;;;0.90;0.73;;;29.40;49.70;;;;;;4997075;28;20449;-77
2022/06/15 10:49:55;;;;;;;0.70;0.60;;;29.60;48.30;;;;;;4997742;28;20445;-77
2022/06/15 10:52:27;;;;;;;0.70;0.70;;;29.80;46.80;;;;;;4996902;28;20464;-77
2022/06/15 11:03:41;;;;;;;0.70;0.60;;;29.50;46.60;;;;;;4996984;28;20851;-76
2022/06/15 11:06:07;;;;;;;0.70;0.60;;;29.70;45.60;;;;;;4996696;28;20538;-77
2022/06/15 11:08:36;;;;;;;0.70;0.63;;;29.90;46.40;;;;;;4996765;28;20449;-76
2022/06/15 11:11:11;;;;;;;0.70;0.60;;;29.90;47.50;;;;;;4996635;28;20476;-76
2022/06/15 11:13:42;;;;;;;0.80;0.70;;;30.00;45.50;;;;;;4996687;28;20464;-76
2022/06/15 11:19:09;;;;;;;0.70;0.60;;;30.20;44.90;;;;;;4995324;28;20536;-76
2022/06/15 11:21:40;;;;;;;0.70;0.70;;;30.30;46.70;;;;;;4996419;28;20473;-76
2022/06/15 11:24:16;;;;;;;0.70;0.60;;;30.60;47.30;;;;;;4996489;28;20516;-76
2022/06/15 11:26:54;;;;;;;0.80;0.60;;;30.70;45.00;;;;;;4996344;28;20465;-77
2022/06/15 11:29:42;;;;;;;0.90;0.70;;;30.40;44.80;;;;;;4996140;28;20904;-77
2022/06/15 11:32:17;;;;;;;0.70;0.60;;;30.60;44.70;;;;;;4996263;28;20527;-77
2022/06/15 11:34:54;;;;;;;0.80;0.70;;;30.40;45.00;;;;;;4996382;28;20500;-76
2022/06/15 11:37:26;;;;;;;0.70;0.63;;;30.50;43.30;;;;;;4996809;28;20437;-77
2022/06/15 11:40:00;;;;;;;0.70;0.70;;;30.30;44.30;;;;;;4996441;28;20441;-76
2022/06/15 11:42:27;;;;;;;0.70;0.70;;;30.10;44.90;;;;;;4996139;28;20469;-77
2022/06/15 11:44:54;;;;;;;0.70;0.60;;;30.10;43.80;;;;;;4996195;28;20544;-77
2022/06/15 11:47:30;;;;;;;0.70;0.70;;;30.10;43.70;;;;;;4995988;28;20507;-76
2022/06/15 11:50:08;;;;;;;1.20;0.70;;;29.90;43.40;;;;;;4995980;28;20429;-76
2022/06/15 11:52:45;;;;;;;1.20;0.80;;;30.10;43.60;;;;;;4995865;28;20539;-76
2022/06/15 11:55:24;;;;;;;0.70;0.70;;;30.10;44.10;;;;;;4995892;28;20433;-76
2022/06/15 11:58:09;;;;;;;0.70;0.60;;;30.20;45.20;;;;;;4995900;28;20436;-76
2022/06/15 12:00:40;;;;;;;0.70;0.60;;;30.20;44.80;;;;;;4995688;28;20453;-75
2022/06/15 12:03:24;;;;;;;0.80;0.70;;;30.60;46.10;;;;;;4995870;28;20430;-76
2022/06/15 12:05:56;;;;;;;0.70;0.60;;;31.00;45.80;;;;;;4995388;28;21039;-76
2022/06/15 12:08:35;;;;;;;0.70;0.60;;;31.20;45.80;;;;;;4995599;28;20429;-76
2022/06/15 12:12:37;;;;;;;0.87;0.70;;;31.10;45.80;;;;;;4995403;28;20577;-75
2022/06/15 12:14:04;;;;;;;1.10;0.70;;;31.50;44.10;;;;;;4994979;28;20949;-76
2022/06/15 12:16:38;;;;;;;1.10;0.80;;;31.90;43.50;;;;;;4995423;28;20429;-76
2022/06/15 12:19:14;;;;;;;1.27;0.60;;;31.90;44.20;;;;;;4995473;28;20536;-76
2022/06/15 12:21:49;;;;;;;0.90;0.70;;;31.80;44.90;;;;;;4995471;28;20484;-75
2022/06/15 12:24:22;;;;;;;0.80;0.73;;;31.40;45.60;;;;;;4994976;28;20897;-77
2022/06/15 12:27:01;;;;;;;1.20;0.70;;;31.80;44.00;;;;;;4995333;28;20527;-76
2022/06/15 12:29:42;;;;;;;0.70;0.70;;;31.90;44.70;;;;;;4994563;28;20901;-76
2022/06/15 12:32:31;;;;;;;0.70;0.63;;;31.80;42.60;;;;;;4995181;28;20465;-76
2022/06/15 12:35:09;;;;;;;0.70;0.60;;;31.10;43.90;;;;;;4995114;28;20528;-76
2022/06/15 12:37:43;;;;;;;0.70;0.70;;;31.10;43.10;;;;;;4995089;28;20433;-75
2022/06/15 12:40:22;;;;;;;0.70;0.70;;;31.00;44.20;;;;;;4995038;28;20438;-76
2022/06/15 12:42:53;;;;;;;0.70;0.70;;;31.00;44.10;;;;;;4994721;28;20920;-75
2022/06/15 12:45:24;;;;;;;0.73;0.60;;;30.90;43.20;;;;;;4994914;28;20517;-75
2022/06/15 12:47:55;;;;;;;0.70;0.70;;;30.90;43.70;;;;;;4994937;28;20488;-76
2022/06/15 12:50:39;;;;;;;0.73;0.73;;;31.00;43.40;;;;;;4994818;28;20433;-76
2022/06/15 12:53:17;;;;;;;0.70;0.63;;;31.00;43.80;;;;;;4994746;28;20520;-76
2022/06/15 12:55:51;;;;;;;0.70;0.60;;;31.10;43.60;;;;;;4994775;28;20464;-77
2022/06/15 12:58:27;;;;;;;1.03;0.70;;;31.40;44.20;;;;;;4994602;28;20970;-76
2022/06/15 13:01:00;;;;;;;1.10;0.70;;;31.50;43.50;;;;;;4994626;28;20472;-77
2022/06/15 13:03:41;;;;;;;0.70;0.70;;;31.40;43.70;;;;;;4994655;28;20473;-76
2022/06/15 13:06:27;;;;;;;0.70;0.70;;;31.40;42.80;;;;;;4994824;28;20519;-76
2022/06/15 13:09:18;;;;;;;0.70;0.70;;;30.90;42.50;;;;;;4994538;28;20429;-77
2022/06/15 13:12:00;;;;;;;0.70;0.70;;;30.80;43.20;;;;;;4994189;28;20850;-76
2022/06/15 13:14:31;;;;;;;0.70;0.70;;;30.90;44.50;;;;;;4994774;28;20516;-76
2022/06/15 13:17:03;;;;;;;0.67;0.63;;;31.20;43.50;;;;;;4994509;28;20429;-76
2022/06/15 13:19:39;;;;;;;0.70;0.60;;;31.60;43.40;;;;;;4994753;28;20433;-76
2022/06/15 13:22:13;;;;;;;0.70;0.70;;;31.80;43.60;;;;;;4994391;28;20568;-77
2022/06/15 13:25:06;;;;;;;0.93;0.80;;;32.00;43.20;;;;;;4994315;28;20441;-76
2022/06/15 13:27:37;;;;;;;0.80;0.80;;;32.20;42.70;;;;;;4994265;28;20527;-75
2022/06/15 13:30:24;;;;;;;0.67;0.63;;;32.10;42.50;;;;;;4993903;28;20839;-76
2022/06/15 13:33:00;;;;;;;1.00;0.70;;;32.30;44.30;;;;;;4994245;28;20434;-76
2022/06/15 13:35:31;;;;;;;0.90;0.60;;;32.20;41.90;;;;;;4994545;28;20433;-76
2022/06/15 13:38:15;;;;;;;0.80;0.70;;;31.90;41.70;;;;;;4994424;28;20483;-75
2022/06/15 13:41:16;;;;;;;1.13;0.70;;;31.90;43.10;;;;;;4993653;28;20977;-77
2022/06/15 13:44:28;;;;;;;0.70;0.70;;;31.90;42.00;;;;;;4994114;28;20453;-76
2022/06/15 13:47:04;;;;;;;0.70;0.67;;;31.90;42.20;;;;;;4994107;28;20508;-77
2022/06/15 13:49:38;;;;;;;1.20;0.80;;;32.10;43.10;;;;;;4994024;28;20434;-76
2022/06/15 13:52:11;;;;;;;0.90;0.70;;;32.10;41.20;;;;;;4993876;28;20481;-76
2022/06/15 13:55:10;;;;;;;0.70;0.70;;;32.30;41.70;;;;;;4993715;28;20977;-77
2022/06/15 13:57:56;;;;;;;0.70;0.60;;;32.40;39.90;;;;;;4986701;28;20457;-76
2022/06/15 14:00:31;;;;;;;0.90;0.70;;;32.40;41.20;;;;;;4993905;28;20437;-76
2022/06/15 14:03:17;;;;;;;1.10;0.70;;;32.40;40.60;;;;;;4993450;28;20469;-77
2022/06/15 14:05:58;;;;;;;0.70;0.70;;;32.40;41.30;;;;;;4993939;28;20492;-78
2022/06/15 14:08:45;;;;;;;1.20;0.70;;;32.70;40.50;;;;;;4994050;28;20433;-76
2022/06/15 14:11:20;;;;;;;0.70;0.70;;;32.70;40.70;;;;;;4993566;28;20980;-76
2022/06/15 14:14:14;;;;;;;0.77;0.60;;;32.70;40.20;;;;;;4994449;28;20421;-77
2022/06/15 14:17:13;;;;;;;0.90;0.70;;;32.60;40.50;;;;;;4994090;28;20449;-77
2022/06/15 14:19:44;;;;;;;0.70;0.67;;;32.70;41.20;;;;;;4993811;28;20499;-77
2022/06/15 14:22:14;;;;;;;1.40;0.70;;;33.00;40.70;;;;;;4994213;28;20588;-77
2022/06/15 14:24:41;;;;;;;0.80;0.80;;;33.20;41.20;;;;;;4993789;28;20445;-77
2022/06/15 14:27:11;;;;;;;0.70;0.63;;;33.40;39.80;;;;;;4994042;28;20485;-76
2022/06/15 14:29:42;;;;;;;0.70;0.60;;;33.50;40.90;;;;;;4993563;28;21027;-76
2022/06/15 14:32:25;;;;;;;1.00;0.77;;;33.70;40.80;;;;;;4993686;28;20560;-77
2022/06/15 14:34:51;;;;;;;0.80;0.70;;;33.80;38.90;;;;;;4993702;28;20433;-78
2022/06/15 14:37:22;;;;;;;0.83;0.70;;;33.50;39.50;;;;;;4993681;28;20448;-77
2022/06/15 14:39:53;;;;;;;0.80;0.80;;;33.30;38.80;;;;;;4993781;28;20462;-77
2022/06/15 14:42:21;;;;;;;0.70;0.70;;;33.40;40.80;;;;;;4993978;28;20469;-76
2022/06/15 14:44:51;;;;;;;0.80;0.70;;;33.10;41.10;;;;;;4993978;28;20507;-76
2022/06/15 14:47:24;;;;;;;0.70;0.60;;;33.20;40.10;;;;;;4993727;28;20485;-77
2022/06/15 14:49:53;;;;;;;0.70;0.63;;;33.10;40.20;;;;;;4993236;28;20924;-77
2022/06/15 14:52:25;;;;;;;0.70;0.63;;;32.90;40.70;;;;;;4993548;28;20469;-76
2022/06/15 14:54:54;;;;;;;0.80;0.63;;;32.80;39.80;;;;;;4997475;28;20433;-77
2022/06/15 14:57:23;;;;;;;0.70;0.60;;;33.10;40.40;;;;;;4996657;28;20937;-77
2022/06/15 14:59:53;;;;;;;0.70;0.60;;;33.40;39.30;;;;;;4997010;28;20445;-77
2022/06/15 15:02:23;;;;;;;0.70;0.60;;;33.70;39.30;;;;;;4996477;28;20535;-77
2022/06/15 15:04:55;;;;;;;0.60;0.60;;;33.80;38.40;;;;;;4996800;28;20449;-75
2022/06/15 15:10:22;;;;;;;0.70;0.60;;;33.60;39.80;;;;;;4996748;28;21012;-78
2022/06/15 15:12:49;;;;;;;0.93;0.93;;;33.60;39.10;;;;;;4996587;28;20472;-78
2022/06/15 15:15:18;;;;;;;0.70;0.60;;;33.30;39.50;;;;;;4998049;28;20456;-78
2022/06/15 15:17:51;;;;;;;0.80;0.60;;;32.90;39.70;;;;;;4996596;28;20886;-77
2022/06/15 15:20:31;;;;;;;0.70;0.60;;;33.00;40.20;;;;;;4996414;28;20445;-77
2022/06/15 15:22:58;;;;;;;0.80;0.80;;;32.80;39.60;;;;;;4996599;28;20433;-76
2022/06/15 15:25:36;;;;;;;0.70;0.70;;;32.70;39.70;;;;;;4997531;28;20920;-77
2022/06/15 15:39:32;;;;;;;0.67;0.60;;;32.90;40.80;;;;;;4997170;28;20433;-74
2022/06/15 15:41:58;;;;;;;0.70;0.60;;;33.00;39.60;;;;;;4995953;28;20504;-76
2022/06/15 15:44:26;;;;;;;0.70;0.60;;;33.10;39.30;;;;;;4996885;28;20445;-76
2022/06/15 15:46:54;;;;;;;0.87;0.73;;;33.00;39.10;;;;;;4996228;28;20625;-76
2022/06/15 15:49:20;;;;;;;1.33;0.70;;;33.10;39.90;;;;;;4996113;28;20461;-75
2022/06/15 15:51:47;;;;;;;1.27;0.60;;;33.30;40.30;;;;;;4997215;28;20473;-74
2022/06/15 15:54:14;;;;;;;1.30;0.77;;;33.30;40.10;;;;;;4997444;28;20479;-75
2022/06/15 15:56:43;;;;;;;0.80;0.70;;;33.10;40.50;;;;;;4997929;28;20536;-75
2022/06/15 15:59:11;;;;;;;1.30;0.90;;;32.80;40.30;;;;;;4997419;28;20876;-75
2022/06/15 16:01:39;;;;;;;0.70;0.70;;;32.70;41.20;;;;;;4996517;28;20481;-76
2022/06/15 16:04:07;;;;;;;0.80;0.70;;;32.70;42.80;;;;;;4996641;28;20453;-76
2022/06/15 16:06:34;;;;;;;0.70;0.70;;;32.70;42.60;;;;;;4995736;28;20539;-76
2022/06/15 16:09:01;;;;;;;0.63;0.60;;;32.50;42.60;;;;;;4996093;28;20445;-76
2022/06/15 16:11:28;;;;;;;0.80;0.80;;;32.60;42.20;;;;;;4997616;28;20999;-75
2022/06/15 16:13:54;;;;;;;0.70;0.60;;;32.80;42.30;;;;;;4995833;28;20874;-77
2022/06/15 16:16:21;;;;;;;0.80;0.67;;;32.70;41.30;;;;;;4996759;28;20948;-75
2022/06/15 16:18:48;;;;;;;0.80;0.67;;;32.80;41.40;;;;;;4996385;28;20940;-75
2022/06/15 16:21:16;;;;;;;0.70;0.70;;;32.70;42.00;;;;;;4997624;28;20477;-75
2022/06/15 16:23:43;;;;;;;0.90;0.70;;;32.40;42.00;;;;;;4996541;28;20480;-75
2022/06/15 16:26:10;;;;;;;0.70;0.60;;;32.30;42.70;;;;;;4996310;28;20464;-75
2022/06/15 16:28:38;;;;;;;0.70;0.67;;;32.40;42.90;;;;;;4996389;28;20492;-74
2022/06/15 16:31:08;;;;;;;0.67;0.60;;;32.50;42.40;;;;;;4996192;28;20596;-77
2022/06/15 16:33:35;;;;;;;0.90;0.70;;;32.70;42.70;;;;;;4995055;28;20933;-75
2022/06/15 16:36:02;;;;;;;0.90;0.60;;;32.60;42.30;;;;;;4995138;28;20445;-76
2022/06/15 16:38:31;;;;;;;0.70;0.60;;;32.30;42.80;;;;;;4994848;28;21024;-75
2022/06/15 16:41:09;;;;;;;0.70;0.70;;;32.30;43.40;;;;;;4995154;28;20539;-77
2022/06/15 16:43:37;;;;;;;0.70;0.60;;;32.40;43.60;;;;;;4997277;28;20438;-76
2022/06/15 16:46:04;;;;;;;0.70;0.60;;;32.40;42.80;;;;;;4995336;28;20433;-76